createdAt,value
2019-04-29T00:02:11.229Z,7.23
2019-04-29T00:04:39.503Z,7.21
2019-04-29T00:07:08.804Z,7.19
2019-04-29T00:09:37.161Z,7.19
2019-04-29T00:12:05.545Z,7.22
2019-04-29T00:14:35.084Z,7.23
2019-04-29T00:17:14.284Z,7.25
2019-04-29T00:19:44.529Z,7.22
2019-04-29T00:22:13.096Z,7.18
2019-04-29T00:24:41.377Z,7.09
2019-04-29T00:27:09.687Z,7.06
2019-04-29T00:29:37.988Z,7.01
2019-04-29T00:32:06.671Z,6.97
2019-04-29T00:34:35.292Z,6.94
2019-04-29T00:37:21.362Z,6.92
2019-04-29T00:40:07.470Z,6.92
2019-04-29T00:42:37.441Z,6.91
2019-04-29T00:45:07.089Z,6.92
2019-04-29T00:47:35.692Z,6.93
2019-04-29T00:50:06.158Z,6.91
2019-04-29T00:52:34.450Z,6.84
2019-04-29T00:55:13.563Z,6.79
2019-04-29T00:57:42.212Z,6.75
2019-04-29T01:00:12.518Z,6.74
2019-04-29T01:02:41.224Z,6.76
2019-04-29T01:05:09.599Z,6.71
2019-04-29T01:07:37.888Z,6.66
2019-04-29T01:10:06.616Z,6.61
2019-04-29T01:12:35.496Z,6.57
2019-04-29T01:15:05.895Z,6.54
2019-04-29T01:17:34.459Z,6.53
2019-04-29T01:20:02.753Z,6.49
2019-04-29T01:22:31.512Z,6.46
2019-04-29T01:25:00.103Z,6.45
2019-04-29T01:27:30.049Z,6.45
2019-04-29T01:29:59.737Z,6.43
2019-04-29T01:32:28.062Z,6.40
2019-04-29T01:34:56.515Z,6.41
2019-04-29T01:37:26.627Z,6.41
2019-04-29T01:39:59.579Z,6.36
2019-04-29T01:42:29.523Z,6.32
2019-04-29T01:44:57.811Z,6.31
2019-04-29T01:47:26.132Z,6.28
2019-04-29T01:49:54.423Z,6.26
2019-04-29T01:52:22.739Z,6.24
2019-04-29T01:54:51.289Z,6.20
2019-04-29T01:57:19.889Z,6.15
2019-04-29T01:59:48.456Z,6.12
2019-04-29T02:02:16.760Z,6.14
2019-04-29T02:04:45.071Z,6.16
2019-04-29T02:07:13.441Z,6.17
2019-04-29T02:09:58.171Z,6.17
2019-04-29T02:12:26.457Z,6.13
2019-04-29T02:14:54.771Z,6.14
2019-04-29T02:17:23.049Z,6.14
2019-04-29T02:19:51.350Z,6.09
2019-04-29T02:22:33.121Z,6.03
2019-04-29T02:25:03.070Z,6.02
2019-04-29T02:27:31.637Z,6.02
2019-04-29T02:29:59.931Z,6.04
2019-04-29T02:32:28.322Z,6.01
2019-04-29T02:34:56.640Z,5.99
2019-04-29T02:37:26.569Z,5.96
2019-04-29T02:39:59.269Z,5.89
2019-04-29T02:42:45.656Z,5.82
2019-04-29T02:45:24.704Z,5.79
2019-04-29T02:47:53.001Z,5.77
2019-04-29T02:50:21.286Z,5.74
2019-04-29T02:52:49.599Z,5.69
2019-04-29T02:55:19.546Z,5.69
2019-04-29T02:57:55.295Z,5.73
2019-04-29T03:00:31.131Z,5.75
2019-04-29T03:03:13.359Z,5.77
2019-04-29T03:05:43.672Z,5.75
2019-04-29T03:08:12.038Z,5.79
2019-04-29T03:10:40.742Z,5.81
2019-04-29T03:13:09.277Z,5.80
2019-04-29T03:15:40.657Z,5.81
2019-04-29T03:18:08.994Z,5.81
2019-04-29T03:20:53.685Z,5.76
2019-04-29T03:23:23.633Z,5.75
2019-04-29T03:25:52.010Z,5.74
2019-04-29T03:28:20.584Z,5.73
2019-04-29T03:30:49.160Z,5.74
2019-04-29T03:33:17.464Z,5.74
2019-04-29T03:35:45.787Z,5.72
2019-04-29T03:38:14.100Z,5.67
2019-04-29T03:40:42.673Z,5.64
2019-04-29T03:43:10.965Z,5.63
2019-04-29T03:45:39.528Z,5.62
2019-04-29T03:48:08.136Z,5.58
2019-04-29T03:50:36.412Z,5.53
2019-04-29T03:53:04.805Z,5.51
2019-04-29T03:55:39.676Z,5.50
2019-04-29T03:58:03.110Z,5.47
2019-04-29T04:00:31.401Z,5.45
2019-04-29T04:03:01.350Z,5.45
2019-04-29T04:05:34.270Z,5.43
2019-04-29T04:08:13.617Z,5.39
2019-04-29T04:10:41.883Z,5.38
2019-04-29T04:13:10.204Z,5.37
2019-04-29T04:15:38.502Z,5.36
2019-04-29T04:18:23.308Z,5.36
2019-04-29T04:20:51.646Z,5.36
2019-04-29T04:23:19.898Z,5.38
2019-04-29T04:25:48.195Z,5.43
2019-04-29T04:28:16.592Z,5.49
2019-04-29T04:30:44.972Z,5.55
2019-04-29T04:33:13.542Z,5.60
2019-04-29T04:35:41.845Z,5.64
2019-04-29T04:38:10.502Z,5.67
2019-04-29T04:40:46.304Z,5.68
2019-04-29T04:43:14.601Z,5.71
2019-04-29T04:45:42.892Z,5.75
2019-04-29T04:48:11.482Z,5.79
2019-04-29T04:50:39.776Z,5.83
2019-04-29T04:53:08.065Z,5.86
2019-04-29T04:55:38.011Z,5.91
2019-04-29T04:58:06.342Z,5.96
2019-04-29T05:00:36.312Z,5.97
2019-04-29T05:03:04.766Z,6.06
2019-04-29T05:05:33.039Z,6.15
2019-04-29T05:08:01.361Z,6.24
2019-04-29T05:10:29.660Z,6.35
2019-04-29T05:12:58.024Z,6.44
2019-04-29T05:15:26.299Z,6.55
2019-04-29T05:17:54.604Z,6.72
2019-04-29T05:20:23.151Z,6.90
2019-04-29T05:22:59.978Z,7.00
2019-04-29T05:25:31.670Z,7.11
2019-04-29T05:28:00.135Z,7.25
2019-04-29T05:30:28.504Z,7.40
2019-04-29T05:32:56.824Z,7.50
2019-04-29T05:35:26.755Z,7.57
2019-04-29T05:37:59.508Z,7.62
2019-04-29T05:40:47.727Z,7.66
2019-04-29T05:43:17.701Z,7.65
2019-04-29T05:46:07.277Z,7.65
2019-04-29T05:48:34.219Z,7.67
2019-04-29T05:51:09.874Z,7.71
2019-04-29T05:53:42.544Z,7.73
2019-04-29T05:56:11.112Z,7.78
2019-04-29T05:58:39.658Z,7.84
2019-04-29T06:01:09.921Z,7.93
2019-04-29T06:03:39.777Z,8.04
2019-04-29T06:06:08.225Z,8.19
2019-04-29T06:08:39.251Z,8.33
2019-04-29T06:11:06.808Z,8.48
2019-04-29T06:13:35.351Z,8.64
2019-04-29T06:16:03.969Z,8.79
2019-04-29T06:18:32.258Z,8.93
2019-04-29T06:21:08.697Z,9.12
2019-04-29T06:23:30.639Z,9.24
2019-04-29T06:25:58.939Z,9.39
2019-04-29T06:28:28.221Z,9.53
2019-04-29T06:30:56.641Z,9.67
2019-04-29T06:33:29.063Z,9.85
2019-04-29T06:35:57.066Z,10.01
2019-04-29T06:38:25.478Z,10.12
2019-04-29T06:40:53.755Z,10.25
2019-04-29T06:43:24.672Z,10.37
2019-04-29T06:45:52.204Z,10.45
2019-04-29T06:48:20.767Z,10.44
2019-04-29T06:50:49.832Z,10.44
2019-04-29T06:53:21.214Z,10.45
2019-04-29T06:55:48.280Z,10.52
2019-04-29T06:58:16.957Z,10.57
2019-04-29T07:00:45.231Z,10.57
2019-04-29T07:03:13.909Z,10.62
2019-04-29T07:05:42.340Z,10.73
2019-04-29T07:08:11.082Z,10.83
2019-04-29T07:10:39.403Z,10.85
2019-04-29T07:13:07.681Z,10.87
2019-04-29T07:15:36.068Z,10.96
2019-04-29T07:18:05.100Z,11.10
2019-04-29T07:20:37.074Z,11.25
2019-04-29T07:23:03.435Z,11.29
2019-04-29T07:25:31.728Z,11.35
2019-04-29T07:28:00.028Z,11.46
2019-04-29T07:30:29.524Z,11.55
2019-04-29T07:32:57.906Z,11.65
2019-04-29T07:35:26.230Z,11.81
2019-04-29T07:37:54.616Z,11.98
2019-04-29T07:40:22.978Z,12.07
2019-04-29T07:42:51.295Z,12.05
2019-04-29T07:45:28.014Z,12.09
2019-04-29T07:47:56.833Z,12.18
2019-04-29T07:50:26.795Z,12.26
2019-04-29T07:52:55.442Z,12.35
2019-04-29T07:55:25.965Z,12.36
2019-04-29T07:57:54.121Z,12.35
2019-04-29T08:00:35.457Z,12.31
2019-04-29T08:03:06.826Z,12.37
2019-04-29T08:05:35.287Z,12.33
2019-04-29T08:08:04.240Z,12.35
2019-04-29T08:10:32.522Z,12.34
2019-04-29T08:13:01.002Z,12.38
2019-04-29T08:15:31.836Z,12.45
2019-04-29T08:18:06.316Z,12.50
2019-04-29T08:20:29.696Z,12.69
2019-04-29T08:22:58.343Z,12.81
2019-04-29T08:25:28.051Z,12.88
2019-04-29T08:27:56.340Z,12.91
2019-04-29T08:30:24.656Z,12.96
2019-04-29T08:32:53.306Z,13.05
2019-04-29T08:35:21.613Z,13.12
2019-04-29T08:37:49.909Z,13.22
2019-04-29T08:40:18.218Z,13.27
2019-04-29T08:43:04.490Z,13.40
2019-04-29T08:45:34.845Z,13.49
2019-04-29T08:48:04.720Z,13.47
2019-04-29T08:50:33.348Z,13.52
2019-04-29T08:53:01.632Z,13.48
2019-04-29T08:55:30.955Z,13.50
2019-04-29T08:57:59.969Z,13.54
2019-04-29T09:00:28.249Z,13.64
2019-04-29T09:02:56.548Z,13.64
2019-04-29T09:05:24.841Z,13.80
2019-04-29T09:07:57.285Z,13.84
2019-04-29T09:10:23.286Z,13.93
2019-04-29T09:12:51.578Z,13.99
2019-04-29T09:15:20.074Z,14.08
2019-04-29T09:17:48.326Z,14.26
2019-04-29T09:20:19.011Z,14.35
2019-04-29T09:22:48.964Z,14.40
2019-04-29T09:25:28.039Z,14.43
2019-04-29T09:27:58.142Z,14.43
2019-04-29T09:30:26.613Z,14.41
2019-04-29T09:32:54.912Z,14.54
2019-04-29T09:35:23.520Z,14.72
2019-04-29T09:37:53.892Z,14.95
2019-04-29T09:40:23.491Z,15.06
2019-04-29T09:42:59.364Z,14.97
2019-04-29T09:45:45.508Z,14.86
2019-04-29T09:48:13.829Z,14.82
2019-04-29T09:50:42.123Z,14.81
2019-04-29T09:53:10.440Z,14.80
2019-04-29T09:55:39.981Z,14.82
2019-04-29T09:58:09.118Z,14.86
2019-04-29T10:00:58.296Z,15.21
2019-04-29T10:03:45.425Z,15.38
2019-04-29T10:06:21.057Z,15.36
2019-04-29T10:08:49.651Z,15.47
2019-04-29T10:11:17.942Z,15.46
2019-04-29T10:13:46.312Z,15.42
2019-04-29T10:16:19.238Z,15.26
2019-04-29T10:18:54.960Z,15.24
2019-04-29T10:21:24.151Z,15.33
2019-04-29T10:23:52.638Z,15.47
2019-04-29T10:26:21.116Z,15.55
2019-04-29T10:28:59.782Z,15.71
2019-04-29T10:31:28.198Z,15.97
2019-04-29T10:33:56.604Z,16.16
2019-04-29T10:36:26.269Z,16.34
2019-04-29T10:38:56.804Z,16.32
2019-04-29T10:41:30.053Z,16.39
2019-04-29T10:44:00.011Z,16.42
2019-04-29T10:46:46.182Z,16.42
2019-04-29T10:49:16.433Z,16.21
2019-04-29T10:51:45.013Z,16.27
2019-04-29T10:54:14.336Z,16.21
2019-04-29T10:56:42.782Z,16.23
2019-04-29T10:59:11.629Z,16.24
2019-04-29T11:02:00.668Z,16.32
2019-04-29T11:04:20.414Z,16.39
2019-04-29T11:06:49.113Z,16.30
2019-04-29T11:09:31.188Z,16.15
2019-04-29T11:11:59.476Z,16.10
2019-04-29T11:14:27.801Z,16.31
2019-04-29T11:16:56.326Z,16.34
2019-04-29T11:19:24.919Z,16.42
2019-04-29T11:21:53.312Z,16.45
2019-04-29T11:24:25.740Z,16.34
2019-04-29T11:26:55.779Z,16.18
2019-04-29T11:29:27.388Z,16.05
2019-04-29T11:31:55.939Z,16.27
2019-04-29T11:34:33.384Z,16.59
2019-04-29T11:37:01.768Z,16.68
2019-04-29T11:39:30.065Z,16.80
2019-04-29T11:41:59.798Z,16.91
2019-04-29T11:44:31.856Z,16.87
2019-04-29T11:46:59.719Z,17.04
2019-04-29T11:49:29.724Z,16.98
2019-04-29T11:52:09.099Z,16.90
2019-04-29T11:54:28.760Z,16.95
2019-04-29T11:56:57.069Z,17.21
2019-04-29T11:59:36.144Z,17.32
2019-04-29T12:02:24.763Z,17.37
2019-04-29T12:04:59.206Z,17.34
2019-04-29T12:07:32.548Z,17.33
2019-04-29T12:10:02.244Z,17.31
2019-04-29T12:12:28.752Z,17.24
2019-04-29T12:14:58.679Z,17.11
2019-04-29T12:17:28.629Z,17.02
2019-04-29T12:19:58.537Z,16.98
2019-04-29T12:22:30.740Z,16.84
2019-04-29T12:24:57.176Z,16.82
2019-04-29T12:27:28.960Z,16.62
2019-04-29T12:29:59.462Z,16.62
2019-04-29T12:32:27.840Z,16.57
2019-04-29T12:35:06.648Z,16.62
2019-04-29T12:37:39.273Z,16.64
2019-04-29T12:40:16.221Z,16.61
2019-04-29T12:42:58.321Z,16.62
2019-04-29T12:45:28.289Z,16.20
2019-04-29T12:47:56.577Z,16.29
2019-04-29T12:50:24.947Z,16.41
2019-04-29T12:52:53.221Z,16.35
2019-04-29T12:55:49.074Z,16.55
2019-04-29T12:58:11.751Z,16.71
2019-04-29T13:00:47.524Z,17.08
2019-04-29T13:03:17.697Z,17.18
2019-04-29T13:05:58.414Z,16.98
2019-04-29T13:08:39.854Z,16.82
2019-04-29T13:11:09.689Z,16.76
2019-04-29T13:13:37.968Z,16.70
2019-04-29T13:16:20.087Z,16.70
2019-04-29T13:18:48.968Z,16.75
2019-04-29T13:21:18.764Z,16.73
2019-04-29T13:23:59.519Z,16.66
2019-04-29T13:26:27.812Z,16.56
2019-04-29T13:29:00.450Z,16.60
2019-04-29T13:31:20.137Z,16.52
2019-04-29T13:33:51.015Z,16.52
2019-04-29T13:36:19.637Z,16.37
2019-04-29T13:38:48.573Z,16.38
2019-04-29T13:41:23.820Z,16.47
2019-04-29T13:43:47.362Z,16.57
2019-04-29T13:46:17.292Z,16.83
2019-04-29T13:49:12.831Z,16.89
2019-04-29T13:51:39.475Z,17.04
2019-04-29T13:54:07.762Z,17.26
2019-04-29T13:56:54.551Z,17.23
2019-04-29T13:59:10.728Z,17.21
2019-04-29T14:01:57.768Z,17.20
2019-04-29T14:04:13.837Z,17.20
2019-04-29T14:06:56.139Z,17.04
2019-04-29T14:09:14.303Z,17.07
2019-04-29T14:11:42.577Z,17.11
2019-04-29T14:14:10.878Z,17.06
2019-04-29T14:16:43.063Z,16.98
2019-04-29T14:19:09.358Z,16.98
2019-04-29T14:21:37.655Z,16.83
2019-04-29T14:24:06.307Z,16.51
2019-04-29T14:26:36.965Z,16.47
2019-04-29T14:29:05.255Z,16.42
2019-04-29T14:31:33.539Z,16.46
2019-04-29T14:34:21.796Z,16.45
2019-04-29T14:36:50.099Z,16.47
2019-04-29T14:39:36.131Z,16.15
2019-04-29T14:41:51.027Z,16.12
2019-04-29T14:44:33.677Z,16.12
2019-04-29T14:47:06.272Z,16.16
2019-04-29T14:49:39.741Z,16.22
2019-04-29T14:52:08.281Z,16.19
2019-04-29T14:54:36.867Z,16.15
2019-04-29T14:57:09.105Z,16.07
2019-04-29T14:59:37.315Z,16.05
2019-04-29T15:02:11.919Z,16.02
2019-04-29T15:04:39.312Z,15.97
2019-04-29T15:07:07.714Z,15.75
2019-04-29T15:09:46.367Z,15.71
2019-04-29T15:12:17.269Z,15.69
2019-04-29T15:14:47.693Z,15.50
2019-04-29T15:17:17.734Z,15.27
2019-04-29T15:19:55.760Z,15.22
2019-04-29T15:22:30.246Z,15.16
2019-04-29T15:24:58.526Z,15.15
2019-04-29T15:27:26.913Z,15.11
2019-04-29T15:29:55.199Z,15.06
2019-04-29T15:32:23.916Z,15.05
2019-04-29T15:34:52.229Z,15.10
2019-04-29T15:37:20.513Z,15.15
2019-04-29T15:39:48.802Z,15.07
2019-04-29T15:42:17.342Z,15.03
2019-04-29T15:44:46.030Z,14.90
2019-04-29T15:47:14.619Z,14.76
2019-04-29T15:49:42.905Z,14.61
2019-04-29T15:52:11.191Z,14.45
2019-04-29T15:54:39.846Z,14.18
2019-04-29T15:57:10.749Z,14.04
2019-04-29T15:59:48.449Z,13.96
2019-04-29T16:02:09.273Z,13.86
2019-04-29T16:04:39.383Z,13.86
2019-04-29T16:07:25.238Z,13.85
2019-04-29T16:10:14.471Z,13.84
2019-04-29T16:12:45.355Z,13.85
2019-04-29T16:15:13.628Z,13.83
2019-04-29T16:17:42.001Z,13.79
2019-04-29T16:20:10.275Z,13.77
2019-04-29T16:22:39.353Z,13.67
2019-04-29T16:25:11.023Z,13.65
2019-04-29T16:27:41.593Z,13.64
2019-04-29T16:30:08.524Z,13.63
2019-04-29T16:32:38.471Z,13.68
2019-04-29T16:35:07.154Z,13.77
2019-04-29T16:37:35.504Z,13.75
2019-04-29T16:40:07.551Z,13.74
2019-04-29T16:42:43.661Z,13.79
2019-04-29T16:45:14.216Z,13.85
2019-04-29T16:47:47.554Z,13.82
2019-04-29T16:50:12.323Z,13.78
2019-04-29T16:52:44.332Z,13.79
2019-04-29T16:55:11.379Z,13.77
2019-04-29T16:57:39.661Z,13.77
2019-04-29T17:00:13.689Z,13.78
2019-04-29T17:02:40.422Z,13.80
2019-04-29T17:05:09.135Z,13.80
2019-04-29T17:07:37.491Z,13.83
2019-04-29T17:10:10.869Z,13.81
2019-04-29T17:12:40.794Z,13.83
2019-04-29T17:15:23.573Z,13.90
2019-04-29T17:17:39.424Z,13.97
2019-04-29T17:20:08.279Z,13.93
2019-04-29T17:22:43.246Z,13.86
2019-04-29T17:25:08.454Z,13.78
2019-04-29T17:27:47.387Z,13.83
2019-04-29T17:30:38.290Z,13.85
2019-04-29T17:33:26.470Z,13.77
2019-04-29T17:35:47.905Z,13.73
2019-04-29T17:38:17.353Z,13.68
2019-04-29T17:40:51.244Z,13.69
2019-04-29T17:43:17.689Z,13.64
2019-04-29T17:45:47.621Z,13.60
2019-04-29T17:48:33.782Z,13.57
2019-04-29T17:51:03.919Z,13.55
2019-04-29T17:53:40.012Z,13.52
2019-04-29T17:56:14.953Z,13.43
2019-04-29T17:58:54.733Z,13.40
2019-04-29T18:01:29.018Z,13.47
2019-04-29T18:04:11.816Z,13.53
2019-04-29T18:06:40.315Z,13.55
2019-04-29T18:09:31.834Z,13.53
2019-04-29T18:12:01.266Z,13.49
2019-04-29T18:14:36.570Z,13.39
2019-04-29T18:16:59.713Z,13.33
2019-04-29T18:19:36.184Z,13.32
2019-04-29T18:22:07.320Z,13.19
2019-04-29T18:24:37.497Z,13.13
2019-04-29T18:27:10.264Z,13.07
2019-04-29T18:29:41.607Z,13.02
2019-04-29T18:32:08.928Z,13.03
2019-04-29T18:34:38.002Z,13.05
2019-04-29T18:37:06.682Z,12.98
2019-04-29T18:39:35.302Z,12.95
2019-04-29T18:42:06.711Z,12.99
2019-04-29T18:44:33.629Z,12.97
2019-04-29T18:47:01.947Z,12.96
2019-04-29T18:49:30.250Z,12.95
2019-04-29T18:52:02.153Z,12.96
2019-04-29T18:54:28.560Z,12.96
2019-04-29T18:56:56.891Z,12.85
2019-04-29T18:59:30.706Z,12.76
2019-04-29T19:01:55.470Z,12.70
2019-04-29T19:04:31.272Z,12.67
2019-04-29T19:07:02.424Z,12.66
2019-04-29T19:09:32.153Z,12.58
2019-04-29T19:12:01.642Z,12.59
2019-04-29T19:14:29.939Z,12.46
2019-04-29T19:17:01.300Z,12.38
2019-04-29T19:19:30.835Z,12.34
2019-04-29T19:22:00.793Z,12.28
2019-04-29T19:24:31.507Z,12.25
2019-04-29T19:27:00.778Z,12.23
2019-04-29T19:29:29.499Z,12.28
2019-04-29T19:31:57.889Z,12.29
2019-04-29T19:34:26.276Z,12.26
2019-04-29T19:36:58.155Z,12.24
2019-04-29T19:39:25.524Z,12.26
2019-04-29T19:41:55.719Z,12.29
2019-04-29T19:44:26.488Z,12.29
2019-04-29T19:46:56.949Z,12.30
2019-04-29T19:49:25.780Z,12.29
2019-04-29T19:51:55.537Z,12.28
2019-04-29T19:54:28.365Z,12.19
2019-04-29T19:57:02.940Z,12.18
2019-04-29T19:59:26.103Z,12.21
2019-04-29T20:02:02.015Z,12.22
2019-04-29T20:04:32.002Z,12.25
2019-04-29T20:07:06.665Z,12.30
2019-04-29T20:09:31.644Z,12.32
2019-04-29T20:12:11.835Z,12.31
2019-04-29T20:14:33.673Z,12.32
2019-04-29T20:17:09.541Z,12.37
2019-04-29T20:19:40.581Z,12.36
2019-04-29T20:22:09.843Z,12.35
2019-04-29T20:24:38.709Z,12.36
2019-04-29T20:27:07.527Z,12.40
2019-04-29T20:29:38.370Z,12.35
2019-04-29T20:32:07.885Z,12.26
2019-04-29T20:34:36.507Z,12.25
2019-04-29T20:37:05.967Z,12.24
2019-04-29T20:39:35.687Z,12.22
2019-04-29T20:42:06.392Z,12.24
2019-04-29T20:44:36.530Z,12.28
2019-04-29T20:47:19.105Z,12.30
2019-04-29T20:49:37.228Z,12.31
2019-04-29T20:52:06.502Z,12.31
2019-04-29T20:54:36.022Z,12.29
2019-04-29T20:57:06.971Z,12.29
2019-04-29T20:59:35.852Z,12.22
2019-04-29T21:02:12.579Z,12.17
2019-04-29T21:04:45.716Z,12.14
2019-04-29T21:07:07.030Z,12.08
2019-04-29T21:09:35.717Z,12.05
2019-04-29T21:12:22.609Z,12.02
2019-04-29T21:14:52.543Z,11.99
2019-04-29T21:17:30.835Z,11.94
2019-04-29T21:19:50.863Z,11.93
2019-04-29T21:22:23.439Z,11.93
2019-04-29T21:24:53.709Z,11.94
2019-04-29T21:27:22.551Z,11.95
2019-04-29T21:29:49.914Z,11.92
2019-04-29T21:32:19.895Z,11.93
2019-04-29T21:34:50.099Z,11.91
2019-04-29T21:37:32.250Z,11.90
2019-04-29T21:40:14.607Z,11.88
2019-04-29T21:42:47.121Z,11.85
2019-04-29T21:45:15.528Z,11.84
2019-04-29T21:47:52.712Z,11.85
2019-04-29T21:50:15.392Z,11.87
2019-04-29T21:52:44.743Z,11.86
2019-04-29T21:55:15.938Z,11.85
2019-04-29T21:57:44.706Z,11.82
2019-04-29T22:00:15.658Z,11.82
2019-04-29T22:02:46.683Z,11.79
2019-04-29T22:05:18.428Z,11.80
2019-04-29T22:07:47.482Z,11.80
2019-04-29T22:10:15.376Z,11.80
2019-04-29T22:12:43.622Z,11.78
2019-04-29T22:15:13.557Z,11.80
2019-04-29T22:17:53.785Z,11.79
2019-04-29T22:20:15.854Z,11.79
2019-04-29T22:22:45.250Z,11.79
2019-04-29T22:25:15.751Z,11.78
2019-04-29T22:27:45.127Z,11.79
2019-04-29T22:30:18.494Z,11.82
2019-04-29T22:32:47.153Z,11.83
2019-04-29T22:35:16.580Z,11.79
2019-04-29T22:37:45.402Z,11.77
2019-04-29T22:40:15.469Z,11.77
2019-04-29T22:42:47.462Z,11.70
2019-04-29T22:45:16.039Z,11.70
2019-04-29T22:47:44.363Z,11.72
2019-04-29T22:50:13.608Z,11.75
2019-04-29T22:52:42.204Z,11.77
2019-04-29T22:55:11.096Z,11.75
2019-04-29T22:57:39.395Z,11.72
2019-04-29T23:00:08.422Z,11.66
2019-04-29T23:02:36.702Z,11.64
2019-04-29T23:05:07.983Z,11.65
2019-04-29T23:07:37.744Z,11.66
2019-04-29T23:10:07.337Z,11.65
2019-04-29T23:12:35.628Z,11.56
2019-04-29T23:15:07.814Z,11.49
2019-04-29T23:17:36.121Z,11.49
2019-04-29T23:20:09.244Z,11.47
2019-04-29T23:22:45.128Z,11.46
2019-04-29T23:25:21.727Z,11.49
2019-04-29T23:27:52.201Z,11.49
2019-04-29T23:30:20.396Z,11.47
2019-04-29T23:32:48.692Z,11.49
2019-04-29T23:35:16.983Z,11.48
2019-04-29T23:37:45.767Z,11.43
2019-04-29T23:40:15.187Z,11.40
2019-04-29T23:42:47.483Z,11.40
2019-04-29T23:45:20.790Z,11.42
2019-04-29T23:47:46.980Z,11.46
2019-04-29T23:50:18.747Z,11.45
2019-04-29T23:52:47.929Z,11.44
2019-04-29T23:55:15.940Z,11.45
2019-04-29T23:57:46.095Z,11.45
